Time;durP1;ratioP1;P1;durP2;ratioP2;P2;SDS_P1;SDS_P2;PMS_P1;PMS_P2;Temp;Humidity;BMP_temperature;BMP_pressure;BME280_temperature;BME280_humidity;BME280_pressure;Samples;Min_cycle;Max_cycle;Signal;HPM_P1;HPM_P2
2021/07/09 00:02:04;;;;;;;0.00;0.00;;;;;;;;;;5064243;28;20204;-61
2021/07/09 00:04:30;;;;;;;0.00;0.00;;;;;;;;;;5049714;28;20284;-62
2021/07/09 00:06:57;;;;;;;0.00;0.00;;;;;;;;;;5064613;28;20279;-62
2021/07/09 00:09:25;;;;;;;0.00;0.00;;;;;;;;;;5063694;28;20203;-62
2021/07/09 00:11:52;;;;;;;0.10;0.10;;;;;;;;;;5053755;28;20209;-61
2021/07/09 00:14:20;;;;;;;0.00;0.00;;;;;;;;;;5060148;28;20201;-61
2021/07/09 00:16:47;;;;;;;0.00;0.00;;;;;;;;;;5063677;28;20202;-61
2021/07/09 00:19:14;;;;;;;0.00;0.00;;;;;;;;;;5063862;28;20348;-61
2021/07/09 00:21:40;;;;;;;0.00;0.00;;;;;;;;;;5063163;28;20208;-61
2021/07/09 00:24:07;;;;;;;0.00;0.00;;;;;;;;;;5063199;28;20221;-61
2021/07/09 00:26:35;;;;;;;0.00;0.00;;;;;;;;;;5063299;28;20244;-61
2021/07/09 00:29:02;;;;;;;0.00;0.00;;;;;;;;;;5063586;28;20264;-61
2021/07/09 00:31:30;;;;;;;0.00;0.00;;;;;;;;;;5063691;28;20209;-61
2021/07/09 00:33:56;;;;;;;0.10;0.10;;;;;;;;;;5062718;28;20203;-61
2021/07/09 00:36:22;;;;;;;0.08;0.08;;;;;;;;;;5063100;28;20208;-61
2021/07/09 00:38:49;;;;;;;0.00;0.00;;;;;;;;;;5063400;28;20395;-60
2021/07/09 00:41:15;;;;;;;0.00;0.00;;;;;;;;;;5063255;28;20226;-61
2021/07/09 00:43:43;;;;;;;0.00;0.00;;;;;;;;;;5063034;28;20203;-61
2021/07/09 00:46:09;;;;;;;0.00;0.00;;;;;;;;;;5062392;28;20279;-61
2021/07/09 00:48:36;;;;;;;0.00;0.00;;;;;;;;;;5062775;28;20201;-61
2021/07/09 00:51:04;;;;;;;0.00;0.00;;;;;;;;;;5063076;28;20496;-61
2021/07/09 00:53:30;;;;;;;0.00;0.00;;;;;;;;;;5063223;28;20208;-61
2021/07/09 00:55:57;;;;;;;0.00;0.00;;;;;;;;;;5063085;28;20213;-61
2021/07/09 00:58:23;;;;;;;0.10;0.10;;;;;;;;;;5062185;28;20211;-61
2021/07/09 01:00:51;;;;;;;0.00;0.00;;;;;;;;;;5049429;28;20230;-61
2021/07/09 01:03:17;;;;;;;0.00;0.00;;;;;;;;;;5063079;28;20286;-61
2021/07/09 01:05:43;;;;;;;0.00;0.00;;;;;;;;;;5062916;28;20223;-61
2021/07/09 01:08:10;;;;;;;0.00;0.00;;;;;;;;;;5062882;28;20256;-61
2021/07/09 01:10:36;;;;;;;0.00;0.00;;;;;;;;;;5062687;28;20238;-61
2021/07/09 01:13:02;;;;;;;0.00;0.00;;;;;;;;;;5062367;28;20210;-61
2021/07/09 01:15:29;;;;;;;0.00;0.00;;;;;;;;;;5060952;28;20198;-61
2021/07/09 01:17:57;;;;;;;0.10;0.10;;;;;;;;;;5062731;28;20282;-61
2021/07/09 01:20:24;;;;;;;0.00;0.00;;;;;;;;;;5062409;28;20301;-61
2021/07/09 01:22:50;;;;;;;0.00;0.00;;;;;;;;;;5056077;28;20233;-61
2021/07/09 01:25:19;;;;;;;0.00;0.00;;;;;;;;;;5062155;28;20242;-60
2021/07/09 01:27:46;;;;;;;0.00;0.00;;;;;;;;;;5062169;28;20263;-60
2021/07/09 01:30:14;;;;;;;0.00;0.00;;;;;;;;;;5062815;28;20207;-63
2021/07/09 01:32:40;;;;;;;0.00;0.00;;;;;;;;;;5062308;28;20207;-62
2021/07/09 01:35:08;;;;;;;0.00;0.00;;;;;;;;;;5062133;28;20213;-60
2021/07/09 01:37:34;;;;;;;0.08;0.08;;;;;;;;;;5062058;28;20203;-60
2021/07/09 01:40:01;;;;;;;0.00;0.00;;;;;;;;;;5062793;28;20205;-61
2021/07/09 01:42:29;;;;;;;0.00;0.00;;;;;;;;;;5062626;28;20256;-61
2021/07/09 01:44:55;;;;;;;0.00;0.00;;;;;;;;;;5062429;28;20560;-61
2021/07/09 01:47:21;;;;;;;0.00;0.00;;;;;;;;;;5062761;28;20206;-61
2021/07/09 01:49:50;;;;;;;0.00;0.00;;;;;;;;;;5062482;28;20257;-61
2021/07/09 01:52:16;;;;;;;0.00;0.00;;;;;;;;;;5062249;28;20215;-61
2021/07/09 01:54:42;;;;;;;0.05;0.05;;;;;;;;;;5061985;28;20298;-61
2021/07/09 01:57:09;;;;;;;0.00;0.00;;;;;;;;;;5064766;28;20540;-61
2021/07/09 01:59:36;;;;;;;0.00;0.00;;;;;;;;;;5055920;28;20207;-61
2021/07/09 02:02:03;;;;;;;0.10;0.10;;;;;;;;;;5065635;28;20577;-61
2021/07/09 02:04:29;;;;;;;0.08;0.08;;;;;;;;;;5066799;28;20229;-61
2021/07/09 02:06:55;;;;;;;0.00;0.00;;;;;;;;;;5068735;28;20200;-61
2021/07/09 02:09:22;;;;;;;0.00;0.00;;;;;;;;;;5066286;28;20207;-61
2021/07/09 02:11:48;;;;;;;0.00;0.00;;;;;;;;;;5054660;28;20489;-61
2021/07/09 02:14:14;;;;;;;0.10;0.10;;;;;;;;;;5058682;28;20214;-61
2021/07/09 02:16:42;;;;;;;0.00;0.00;;;;;;;;;;5068933;28;20242;-61
2021/07/09 02:19:09;;;;;;;0.00;0.00;;;;;;;;;;5068862;28;20210;-61
2021/07/09 02:21:35;;;;;;;0.00;0.00;;;;;;;;;;5068840;28;20443;-61
2021/07/09 02:24:01;;;;;;;0.00;0.00;;;;;;;;;;5068991;28;20415;-61
2021/07/09 02:26:27;;;;;;;0.00;0.00;;;;;;;;;;5068567;28;20254;-61
2021/07/09 02:28:53;;;;;;;0.00;0.00;;;;;;;;;;5068582;28;20403;-61
2021/07/09 02:31:20;;;;;;;0.00;0.00;;;;;;;;;;5068623;28;20495;-61
2021/07/09 02:33:47;;;;;;;0.00;0.00;;;;;;;;;;5068260;28;20203;-62
2021/07/09 02:36:13;;;;;;;0.00;0.00;;;;;;;;;;5068352;28;20213;-62
2021/07/09 02:38:40;;;;;;;0.00;0.00;;;;;;;;;;5068183;28;20265;-63
2021/07/09 02:41:06;;;;;;;0.10;0.10;;;;;;;;;;5068370;28;20243;-60
2021/07/09 02:43:32;;;;;;;0.00;0.00;;;;;;;;;;5068608;28;20243;-63
2021/07/09 02:45:59;;;;;;;0.00;0.00;;;;;;;;;;5068580;28;20294;-60
2021/07/09 02:48:25;;;;;;;0.00;0.00;;;;;;;;;;5068601;28;20202;-61
2021/07/09 02:50:52;;;;;;;0.10;0.10;;;;;;;;;;5068164;28;20217;-62
2021/07/09 02:53:19;;;;;;;0.00;0.00;;;;;;;;;;5068505;28;20426;-63
2021/07/09 02:55:45;;;;;;;0.00;0.00;;;;;;;;;;5068551;28;20198;-62
2021/07/09 02:58:12;;;;;;;0.00;0.00;;;;;;;;;;5068587;28;20204;-62
2021/07/09 03:00:38;;;;;;;0.10;0.10;;;;;;;;;;5068530;28;20203;-62
2021/07/09 03:03:04;;;;;;;0.00;0.00;;;;;;;;;;5068430;28;20206;-63
2021/07/09 03:05:31;;;;;;;0.00;0.00;;;;;;;;;;5067990;28;20410;-62
2021/07/09 03:07:58;;;;;;;0.00;0.00;;;;;;;;;;5068267;28;20202;-62
2021/07/09 03:10:25;;;;;;;0.00;0.00;;;;;;;;;;5064501;28;20210;-62
2021/07/09 03:12:51;;;;;;;0.08;0.08;;;;;;;;;;5065174;28;20202;-62
2021/07/09 03:15:17;;;;;;;0.08;0.08;;;;;;;;;;5064429;28;20200;-63
2021/07/09 03:17:43;;;;;;;0.00;0.00;;;;;;;;;;5064966;28;20216;-62
2021/07/09 03:20:11;;;;;;;0.05;0.05;;;;;;;;;;5065122;28;20246;-62
2021/07/09 03:22:37;;;;;;;0.00;0.00;;;;;;;;;;5065528;28;20259;-62
2021/07/09 03:25:06;;;;;;;0.10;0.10;;;;;;;;;;5064916;28;20242;-62
2021/07/09 03:27:33;;;;;;;0.00;0.00;;;;;;;;;;5065162;28;20205;-62
2021/07/09 03:29:59;;;;;;;0.00;0.00;;;;;;;;;;5064956;28;20411;-62
2021/07/09 03:32:26;;;;;;;0.10;0.10;;;;;;;;;;5065025;28;20201;-62
2021/07/09 03:34:52;;;;;;;0.00;0.00;;;;;;;;;;5064908;28;20479;-63
2021/07/09 03:37:18;;;;;;;0.00;0.00;;;;;;;;;;5064301;28;20201;-62
2021/07/09 03:39:44;;;;;;;0.00;0.00;;;;;;;;;;5064527;28;20417;-63
2021/07/09 03:42:12;;;;;;;0.00;0.00;;;;;;;;;;5064177;28;20213;-61
2021/07/09 03:44:38;;;;;;;0.00;0.00;;;;;;;;;;5064264;28;20249;-61
2021/07/09 03:47:04;;;;;;;0.10;0.10;;;;;;;;;;5064130;28;20206;-61
2021/07/09 03:49:31;;;;;;;0.00;0.00;;;;;;;;;;5064406;28;20233;-62
2021/07/09 03:51:57;;;;;;;0.10;0.10;;;;;;;;;;5063970;28;20213;-61
2021/07/09 03:54:23;;;;;;;0.00;0.00;;;;;;;;;;5064385;28;20213;-61
2021/07/09 03:56:49;;;;;;;0.00;0.00;;;;;;;;;;5064301;28;20397;-62
2021/07/09 03:59:17;;;;;;;0.00;0.00;;;;;;;;;;5064187;28;20432;-61
2021/07/09 04:01:43;;;;;;;0.00;0.00;;;;;;;;;;5063898;28;20441;-61
2021/07/09 04:04:09;;;;;;;0.03;0.03;;;;;;;;;;5063744;28;20287;-62
2021/07/09 04:06:36;;;;;;;0.00;0.00;;;;;;;;;;5063577;28;20320;-61
2021/07/09 04:09:03;;;;;;;0.00;0.00;;;;;;;;;;5063867;28;20267;-61
2021/07/09 04:11:29;;;;;;;0.10;0.10;;;;;;;;;;5063894;28;20213;-61
2021/07/09 04:13:55;;;;;;;0.00;0.00;;;;;;;;;;5063855;28;20216;-61
2021/07/09 04:16:23;;;;;;;0.10;0.10;;;;;;;;;;5064050;28;20203;-61
2021/07/09 04:18:49;;;;;;;0.00;0.00;;;;;;;;;;5063866;28;20266;-61
2021/07/09 04:21:15;;;;;;;0.00;0.00;;;;;;;;;;5062888;28;20210;-61
2021/07/09 04:23:41;;;;;;;0.00;0.00;;;;;;;;;;5063706;28;20471;-61
2021/07/09 04:26:08;;;;;;;0.00;0.00;;;;;;;;;;5063160;28;20261;-61
2021/07/09 04:28:35;;;;;;;0.10;0.10;;;;;;;;;;5063452;28;20250;-62
2021/07/09 04:31:01;;;;;;;0.00;0.00;;;;;;;;;;5063250;28;20213;-62
2021/07/09 04:33:29;;;;;;;0.00;0.00;;;;;;;;;;5062990;28;20224;-62
2021/07/09 04:35:55;;;;;;;0.00;0.00;;;;;;;;;;5063328;28;20455;-62
2021/07/09 04:38:21;;;;;;;0.00;0.00;;;;;;;;;;5056150;28;20256;-62
2021/07/09 04:40:47;;;;;;;0.08;0.08;;;;;;;;;;5063010;28;20280;-61
2021/07/09 04:43:14;;;;;;;0.00;0.00;;;;;;;;;;5063327;28;20278;-61
2021/07/09 04:45:40;;;;;;;0.10;0.10;;;;;;;;;;5063247;28;20223;-61
2021/07/09 04:48:07;;;;;;;0.00;0.00;;;;;;;;;;5063401;28;20408;-61
2021/07/09 04:50:34;;;;;;;0.00;0.00;;;;;;;;;;5063043;28;20225;-61
2021/07/09 04:53:01;;;;;;;0.10;0.10;;;;;;;;;;5063201;28;20208;-61
2021/07/09 04:55:27;;;;;;;0.00;0.00;;;;;;;;;;5063497;28;20286;-61
2021/07/09 04:57:54;;;;;;;0.10;0.10;;;;;;;;;;5063410;28;20208;-61
2021/07/09 05:00:20;;;;;;;0.00;0.00;;;;;;;;;;5063287;28;20258;-61
2021/07/09 05:02:46;;;;;;;0.10;0.10;;;;;;;;;;5063266;28;20263;-61
2021/07/09 05:05:13;;;;;;;0.00;0.00;;;;;;;;;;5063095;28;20267;-61
2021/07/09 05:07:41;;;;;;;0.00;0.00;;;;;;;;;;5063223;28;20234;-60
2021/07/09 05:10:08;;;;;;;0.00;0.00;;;;;;;;;;5062487;28;20210;-61
2021/07/09 05:12:34;;;;;;;0.00;0.00;;;;;;;;;;5056742;28;20210;-61
2021/07/09 05:15:01;;;;;;;0.00;0.00;;;;;;;;;;5062765;28;20201;-61
2021/07/09 05:17:27;;;;;;;0.00;0.00;;;;;;;;;;5061269;28;20493;-61
2021/07/09 05:19:53;;;;;;;0.08;0.08;;;;;;;;;;5061129;28;20254;-61
2021/07/09 05:22:20;;;;;;;0.00;0.00;;;;;;;;;;5061911;28;20214;-61
2021/07/09 05:24:48;;;;;;;0.10;0.10;;;;;;;;;;5061803;28;20229;-62
2021/07/09 05:27:15;;;;;;;0.00;0.00;;;;;;;;;;5062272;28;20238;-61
2021/07/09 05:29:41;;;;;;;0.00;0.00;;;;;;;;;;5062478;28;20205;-61
2021/07/09 05:32:08;;;;;;;0.00;0.00;;;;;;;;;;5061433;28;20206;-62
2021/07/09 05:34:35;;;;;;;0.00;0.00;;;;;;;;;;5062516;28;20206;-61
2021/07/09 05:37:01;;;;;;;0.00;0.00;;;;;;;;;;5062114;28;20213;-61
2021/07/09 05:39:27;;;;;;;0.05;0.05;;;;;;;;;;5062491;28;20211;-61
2021/07/09 05:41:55;;;;;;;0.00;0.00;;;;;;;;;;5062224;28;20247;-61
2021/07/09 05:44:21;;;;;;;0.00;0.00;;;;;;;;;;5062373;28;20388;-61
2021/07/09 05:46:47;;;;;;;0.00;0.00;;;;;;;;;;5061551;28;20216;-61
2021/07/09 05:49:16;;;;;;;0.00;0.00;;;;;;;;;;5061018;28;20281;-61
2021/07/09 05:51:43;;;;;;;0.00;0.00;;;;;;;;;;5062029;28;20219;-62
2021/07/09 05:54:09;;;;;;;0.00;0.00;;;;;;;;;;5062456;28;20253;-61
2021/07/09 05:56:35;;;;;;;0.00;0.00;;;;;;;;;;5061625;28;20209;-62
2021/07/09 05:59:03;;;;;;;0.00;0.00;;;;;;;;;;5061656;28;20245;-62
2021/07/09 06:01:30;;;;;;;0.00;0.00;;;;;;;;;;5072360;28;20246;-61
2021/07/09 06:03:56;;;;;;;0.00;0.00;;;;;;;;;;5050828;28;20206;-61
2021/07/09 06:06:23;;;;;;;0.00;0.00;;;;;;;;;;5062295;28;20233;-61
2021/07/09 06:08:49;;;;;;;0.10;0.10;;;;;;;;;;5056621;28;20209;-61
2021/07/09 06:11:15;;;;;;;0.00;0.00;;;;;;;;;;5052928;28;20208;-60
2021/07/09 06:13:42;;;;;;;0.00;0.00;;;;;;;;;;5061491;28;20205;-61
2021/07/09 06:16:09;;;;;;;0.00;0.00;;;;;;;;;;5061169;28;20269;-62
2021/07/09 06:18:36;;;;;;;0.00;0.00;;;;;;;;;;5060910;28;20207;-62
2021/07/09 06:21:02;;;;;;;0.03;0.03;;;;;;;;;;5061804;28;20247;-61
2021/07/09 06:23:29;;;;;;;0.10;0.10;;;;;;;;;;5060410;28;20381;-61
2021/07/09 06:25:55;;;;;;;0.00;0.00;;;;;;;;;;5061856;28;20231;-61
2021/07/09 06:28:21;;;;;;;0.10;0.10;;;;;;;;;;5060166;28;20339;-61
2021/07/09 06:30:47;;;;;;;0.00;0.00;;;;;;;;;;5061009;28;20215;-61
2021/07/09 06:33:15;;;;;;;0.00;0.00;;;;;;;;;;5061111;28;20257;-61
2021/07/09 06:35:41;;;;;;;0.05;0.05;;;;;;;;;;5061694;28;20216;-61
2021/07/09 06:38:07;;;;;;;0.08;0.08;;;;;;;;;;5061605;28;20210;-61
2021/07/09 06:40:34;;;;;;;0.00;0.00;;;;;;;;;;5061713;28;20212;-63
2021/07/09 06:43:01;;;;;;;0.05;0.05;;;;;;;;;;5061843;28;20273;-61
2021/07/09 06:45:27;;;;;;;0.10;0.10;;;;;;;;;;5064675;28;20229;-60
2021/07/09 06:47:57;;;;;;;0.00;0.00;;;;;;;;;;5063757;28;20225;-62
2021/07/09 06:50:24;;;;;;;0.00;0.00;;;;;;;;;;5064491;28;20221;-60
2021/07/09 06:52:51;;;;;;;0.00;0.00;;;;;;;;;;5065328;28;20230;-60
2021/07/09 06:55:18;;;;;;;0.00;0.00;;;;;;;;;;5065230;28;20221;-60
2021/07/09 06:57:46;;;;;;;0.00;0.00;;;;;;;;;;5065471;28;20195;-61
2021/07/09 07:00:17;;;;;;;0.00;0.00;;;;;;;;;;5061998;28;20271;-61
2021/07/09 07:02:43;;;;;;;0.00;0.00;;;;;;;;;;5065341;28;20198;-60
2021/07/09 07:05:10;;;;;;;0.00;0.00;;;;;;;;;;5065169;28;20212;-61
2021/07/09 07:07:37;;;;;;;0.00;0.00;;;;;;;;;;5062574;28;20263;-61
2021/07/09 07:10:04;;;;;;;0.00;0.00;;;;;;;;;;5065304;28;20211;-61
2021/07/09 07:12:30;;;;;;;0.00;0.00;;;;;;;;;;5065302;28;20447;-61
2021/07/09 07:14:56;;;;;;;0.10;0.10;;;;;;;;;;5065288;28;20206;-61
2021/07/09 07:17:22;;;;;;;0.10;0.10;;;;;;;;;;5062706;28;20245;-61
2021/07/09 07:19:49;;;;;;;0.00;0.00;;;;;;;;;;5064985;28;20209;-61
2021/07/09 07:22:15;;;;;;;0.08;0.08;;;;;;;;;;5065080;28;20253;-61
2021/07/09 07:24:43;;;;;;;0.00;0.00;;;;;;;;;;5064860;28;20572;-61
2021/07/09 07:27:09;;;;;;;0.00;0.00;;;;;;;;;;5064770;28;20231;-61
2021/07/09 07:29:35;;;;;;;0.05;0.05;;;;;;;;;;5064937;28;20297;-62
2021/07/09 07:32:01;;;;;;;0.00;0.00;;;;;;;;;;5065084;28;20349;-62
2021/07/09 07:34:28;;;;;;;0.00;0.00;;;;;;;;;;5062254;28;20547;-61
2021/07/09 07:36:54;;;;;;;0.00;0.00;;;;;;;;;;5064822;28;20532;-61
2021/07/09 07:39:20;;;;;;;0.00;0.00;;;;;;;;;;5048101;28;20198;-62
2021/07/09 07:41:48;;;;;;;0.00;0.00;;;;;;;;;;5063323;28;20229;-62
2021/07/09 07:44:14;;;;;;;0.10;0.10;;;;;;;;;;5064763;28;20247;-61
2021/07/09 07:46:41;;;;;;;0.10;0.10;;;;;;;;;;5064530;28;20225;-61
2021/07/09 07:49:09;;;;;;;0.00;0.00;;;;;;;;;;5064448;28;20267;-62
2021/07/09 07:51:36;;;;;;;0.00;0.00;;;;;;;;;;5064824;28;20247;-62
2021/07/09 07:54:08;;;;;;;0.00;0.00;;;;;;;;;;5064594;28;20209;-61
2021/07/09 07:56:40;;;;;;;0.00;0.00;;;;;;;;;;5063664;28;20412;-61
2021/07/09 07:59:07;;;;;;;0.00;0.00;;;;;;;;;;5064536;28;20197;-62
2021/07/09 08:01:33;;;;;;;0.10;0.10;;;;;;;;;;5064104;28;20252;-61
2021/07/09 08:04:00;;;;;;;0.00;0.00;;;;;;;;;;5063822;28;20212;-61
2021/07/09 08:06:26;;;;;;;0.00;0.00;;;;;;;;;;5064003;28;20226;-62
2021/07/09 08:08:52;;;;;;;0.10;0.10;;;;;;;;;;5064214;28;20214;-62
2021/07/09 08:11:18;;;;;;;0.00;0.00;;;;;;;;;;5063842;28;20211;-61
2021/07/09 08:13:45;;;;;;;0.10;0.10;;;;;;;;;;5064181;28;20211;-62
2021/07/09 08:16:12;;;;;;;0.10;0.10;;;;;;;;;;5063869;28;20205;-61
2021/07/09 08:18:38;;;;;;;0.03;0.03;;;;;;;;;;5063924;28;20554;-61
2021/07/09 08:21:05;;;;;;;0.00;0.00;;;;;;;;;;5064188;28;20251;-61
2021/07/09 08:23:31;;;;;;;0.00;0.00;;;;;;;;;;5063561;28;20249;-61
2021/07/09 08:25:58;;;;;;;0.00;0.00;;;;;;;;;;5063221;28;20243;-62
2021/07/09 08:28:25;;;;;;;0.00;0.00;;;;;;;;;;5063679;28;20290;-62
2021/07/09 08:30:51;;;;;;;0.00;0.00;;;;;;;;;;5063796;28;20205;-62
2021/07/09 08:33:19;;;;;;;0.00;0.00;;;;;;;;;;5062986;28;20207;-62
2021/07/09 08:35:45;;;;;;;0.10;0.10;;;;;;;;;;5063123;28;20245;-62
2021/07/09 08:38:12;;;;;;;0.00;0.00;;;;;;;;;;5060788;28;20227;-61
2021/07/09 08:40:38;;;;;;;0.00;0.00;;;;;;;;;;5063581;28;20492;-62
2021/07/09 08:43:05;;;;;;;0.00;0.00;;;;;;;;;;5062992;28;20202;-61
2021/07/09 08:45:32;;;;;;;0.08;0.08;;;;;;;;;;5063123;28;20209;-62
2021/07/09 08:47:59;;;;;;;0.05;0.05;;;;;;;;;;5062619;28;20279;-62
2021/07/09 08:50:26;;;;;;;0.00;0.00;;;;;;;;;;5061694;28;20211;-61
2021/07/09 08:52:53;;;;;;;0.00;0.00;;;;;;;;;;5063426;28;20306;-61
2021/07/09 08:55:20;;;;;;;0.00;0.00;;;;;;;;;;5063371;28;20214;-62
2021/07/09 08:57:47;;;;;;;0.03;0.03;;;;;;;;;;5062911;28;20202;-62
2021/07/09 09:00:28;;;;;;;0.00;0.00;;;;;;;;;;5059525;28;20202;-61
2021/07/09 09:02:54;;;;;;;0.00;0.00;;;;;;;;;;5059897;28;20275;-62
2021/07/09 09:05:21;;;;;;;0.00;0.00;;;;;;;;;;5055868;28;20203;-62
2021/07/09 09:07:50;;;;;;;0.00;0.00;;;;;;;;;;5062440;28;20228;-61
2021/07/09 09:10:16;;;;;;;0.00;0.00;;;;;;;;;;5063143;28;20218;-62
2021/07/09 09:12:46;;;;;;;0.08;0.08;;;;;;;;;;5059008;28;20202;-62
2021/07/09 09:15:12;;;;;;;0.10;0.10;;;;;;;;;;5052905;28;20273;-61
2021/07/09 09:17:38;;;;;;;0.00;0.00;;;;;;;;;;5062835;28;20199;-61
2021/07/09 09:20:11;;;;;;;0.00;0.00;;;;;;;;;;5063290;28;20252;-61
2021/07/09 09:22:39;;;;;;;0.10;0.10;;;;;;;;;;5062631;28;20201;-63
2021/07/09 09:25:07;;;;;;;0.00;0.00;;;;;;;;;;5062499;28;20311;-61
2021/07/09 09:27:34;;;;;;;0.08;0.08;;;;;;;;;;5062838;28;20227;-61
2021/07/09 09:30:07;;;;;;;0.00;0.00;;;;;;;;;;5062612;28;20211;-62
2021/07/09 09:32:35;;;;;;;0.00;0.00;;;;;;;;;;5049965;28;20198;-61
2021/07/09 09:35:01;;;;;;;0.10;0.10;;;;;;;;;;5061937;28;20253;-64
2021/07/09 09:37:28;;;;;;;0.00;0.00;;;;;;;;;;5057673;28;20254;-61
2021/07/09 09:39:55;;;;;;;2.60;2.50;;;;;;;;;;5053837;28;20256;-61
2021/07/09 09:42:23;;;;;;;0.00;0.00;;;;;;;;;;5061746;28;20205;-62
2021/07/09 09:44:50;;;;;;;0.00;0.00;;;;;;;;;;5062636;28;20453;-62
2021/07/09 09:47:17;;;;;;;0.00;0.00;;;;;;;;;;5062479;28;20234;-62
2021/07/09 09:49:44;;;;;;;0.00;0.00;;;;;;;;;;5059221;28;20285;-62
2021/07/09 09:52:10;;;;;;;0.00;0.00;;;;;;;;;;5062693;28;20498;-61
2021/07/09 09:54:37;;;;;;;0.00;0.00;;;;;;;;;;5062279;28;20235;-62
2021/07/09 09:57:05;;;;;;;0.00;0.00;;;;;;;;;;5062293;28;20256;-62
2021/07/09 09:59:33;;;;;;;0.00;0.00;;;;;;;;;;5062249;28;20202;-62
2021/07/09 10:02:01;;;;;;;0.10;0.10;;;;;;;;;;5062139;28;20261;-61
2021/07/09 10:04:30;;;;;;;0.00;0.00;;;;;;;;;;5055691;28;20204;-61
2021/07/09 10:06:56;;;;;;;0.00;0.00;;;;;;;;;;5062167;28;20223;-61
2021/07/09 10:09:23;;;;;;;0.00;0.00;;;;;;;;;;5062050;28;20214;-61
2021/07/09 10:11:49;;;;;;;0.00;0.00;;;;;;;;;;5062357;28;20268;-61
2021/07/09 10:14:16;;;;;;;0.00;0.00;;;;;;;;;;5062259;28;20371;-61
2021/07/09 10:16:45;;;;;;;0.00;0.00;;;;;;;;;;5062377;28;20295;-60
2021/07/09 10:19:16;;;;;;;0.00;0.00;;;;;;;;;;5064841;28;20211;-61
2021/07/09 10:21:43;;;;;;;0.00;0.00;;;;;;;;;;5066393;28;20199;-61
2021/07/09 10:24:09;;;;;;;0.00;0.00;;;;;;;;;;5065630;28;20245;-61
2021/07/09 10:26:41;;;;;;;0.00;0.00;;;;;;;;;;5065783;28;20223;-62
2021/07/09 10:29:12;;;;;;;0.00;0.00;;;;;;;;;;5054023;28;20206;-61
2021/07/09 10:31:39;;;;;;;0.00;0.00;;;;;;;;;;5066221;28;20421;-61
2021/07/09 10:34:39;;;;;;;0.00;0.00;;;;;;;;;;5065220;28;20245;-61
2021/07/09 10:37:08;;;;;;;0.00;0.00;;;;;;;;;;5060158;28;20455;-61
2021/07/09 10:39:36;;;;;;;0.00;0.00;;;;;;;;;;5065813;28;20244;-61
2021/07/09 10:42:12;;;;;;;0.08;0.08;;;;;;;;;;5065572;28;20210;-65
2021/07/09 10:44:39;;;;;;;0.00;0.00;;;;;;;;;;5066017;28;20236;-61
2021/07/09 10:47:15;;;;;;;0.00;0.00;;;;;;;;;;5066195;28;20560;-61
2021/07/09 10:49:56;;;;;;;0.00;0.00;;;;;;;;;;5065835;28;20228;-61
2021/07/09 10:52:41;;;;;;;0.10;0.10;;;;;;;;;;5065716;28;20328;-61
2021/07/09 10:58:21;;;;;;;0.00;0.00;;;;;;;;;;5056606;27;20590;-62
2021/07/09 11:00:48;;;;;;;0.00;0.00;;;;;;;;;;5056462;27;20221;-63
2021/07/09 11:03:32;;;;;;;0.00;0.00;;;;;;;;;;5048519;28;20218;-63
2021/07/09 11:06:01;;;;;;;0.00;0.00;;;;;;;;;;5049874;28;20205;-63
2021/07/09 11:08:50;;;;;;;0.00;0.00;;;;;;;;;;5055983;28;20263;-64
2021/07/09 11:11:17;;;;;;;0.10;0.10;;;;;;;;;;5057054;28;20201;-63
2021/07/09 11:13:46;;;;;;;0.08;0.08;;;;;;;;;;5056128;28;20207;-63
2021/07/09 11:16:26;;;;;;;0.00;0.00;;;;;;;;;;5055072;28;20285;-62
2021/07/09 11:18:53;;;;;;;0.00;0.00;;;;;;;;;;5042944;28;20207;-63
2021/07/09 11:21:34;;;;;;;0.00;0.00;;;;;;;;;;5045292;28;20506;-62
2021/07/09 11:24:01;;;;;;;0.00;0.00;;;;;;;;;;5055200;28;20285;-63
2021/07/09 11:26:29;;;;;;;0.00;0.00;;;;;;;;;;5055695;28;20228;-62
2021/07/09 11:28:57;;;;;;;0.00;0.00;;;;;;;;;;5056010;28;20490;-62
2021/07/09 11:31:30;;;;;;;0.05;0.05;;;;;;;;;;5055978;28;20214;-62
2021/07/09 11:34:01;;;;;;;0.00;0.00;;;;;;;;;;5043683;28;20208;-62
2021/07/09 11:36:27;;;;;;;0.00;0.00;;;;;;;;;;5042441;28;20235;-62
2021/07/09 11:39:06;;;;;;;0.00;0.00;;;;;;;;;;5052784;28;20206;-62
2021/07/09 11:41:40;;;;;;;0.00;0.00;;;;;;;;;;5038091;27;20501;-61
2021/07/09 11:44:07;;;;;;;0.00;0.00;;;;;;;;;;5042943;28;20209;-62
2021/07/09 11:46:34;;;;;;;0.00;0.00;;;;;;;;;;5047784;28;20321;-61
2021/07/09 11:49:01;;;;;;;0.00;0.00;;;;;;;;;;5045832;28;20243;-62
2021/07/09 11:51:27;;;;;;;0.00;0.00;;;;;;;;;;5047763;28;20215;-63
2021/07/09 11:54:06;;;;;;;0.00;0.00;;;;;;;;;;5039408;28;20370;-63
2021/07/09 11:56:39;;;;;;;0.00;0.00;;;;;;;;;;5035340;28;20239;-64
2021/07/09 11:59:17;;;;;;;0.00;0.00;;;;;;;;;;5049716;28;20460;-63
2021/07/09 12:01:43;;;;;;;0.00;0.00;;;;;;;;;;5044561;28;20258;-62
2021/07/09 12:04:10;;;;;;;0.00;0.00;;;;;;;;;;5044179;28;20203;-61
2021/07/09 12:06:36;;;;;;;0.10;0.10;;;;;;;;;;5040289;27;20245;-62
2021/07/09 12:09:04;;;;;;;0.10;0.10;;;;;;;;;;5044357;28;20218;-61
2021/07/09 12:11:31;;;;;;;0.00;0.00;;;;;;;;;;5029433;28;20225;-61
2021/07/09 12:14:06;;;;;;;0.00;0.00;;;;;;;;;;5022413;28;20262;-61
2021/07/09 12:16:34;;;;;;;0.10;0.10;;;;;;;;;;5034729;28;20287;-61
2021/07/09 12:19:05;;;;;;;0.00;0.00;;;;;;;;;;5024716;28;20257;-61
2021/07/09 12:21:32;;;;;;;0.00;0.00;;;;;;;;;;5022403;28;20346;-62
2021/07/09 12:24:02;;;;;;;0.00;0.00;;;;;;;;;;5038038;28;20207;-62
2021/07/09 12:26:30;;;;;;;0.00;0.00;;;;;;;;;;5041001;28;20562;-63
2021/07/09 12:28:56;;;;;;;0.00;0.00;;;;;;;;;;5039148;28;20419;-61
2021/07/09 12:31:23;;;;;;;0.00;0.00;;;;;;;;;;5039109;27;20208;-61
2021/07/09 12:33:54;;;;;;;0.00;0.00;;;;;;;;;;5025141;28;20247;-61
2021/07/09 12:36:21;;;;;;;0.00;0.00;;;;;;;;;;5026978;28;20487;-61
2021/07/09 12:38:57;;;;;;;0.03;0.03;;;;;;;;;;5028864;28;20201;-62
2021/07/09 12:41:31;;;;;;;0.00;0.00;;;;;;;;;;5028479;28;20222;-62
2021/07/09 12:43:57;;;;;;;0.00;0.00;;;;;;;;;;5041493;28;20205;-61
2021/07/09 12:46:24;;;;;;;0.00;0.00;;;;;;;;;;5041309;28;20380;-61
2021/07/09 12:48:57;;;;;;;0.00;0.00;;;;;;;;;;5032581;28;20215;-61
2021/07/09 12:51:24;;;;;;;0.00;0.00;;;;;;;;;;5021440;28;20206;-62
2021/07/09 12:53:51;;;;;;;0.00;0.00;;;;;;;;;;5032943;28;20207;-62
2021/07/09 12:56:18;;;;;;;0.10;0.10;;;;;;;;;;5025320;28;20368;-62
2021/07/09 12:58:46;;;;;;;0.00;0.00;;;;;;;;;;5038362;28;20321;-63
2021/07/09 13:01:13;;;;;;;0.00;0.00;;;;;;;;;;5040019;28;20246;-61
2021/07/09 13:03:42;;;;;;;0.10;0.10;;;;;;;;;;5028412;28;20491;-61
2021/07/09 13:06:11;;;;;;;0.00;0.00;;;;;;;;;;5031363;28;20224;-62
2021/07/09 13:08:38;;;;;;;0.00;0.00;;;;;;;;;;5024370;28;20208;-61
2021/07/09 13:11:14;;;;;;;0.00;0.00;;;;;;;;;;5031705;28;20208;-61
2021/07/09 13:13:41;;;;;;;0.00;0.00;;;;;;;;;;5034788;28;20290;-62
2021/07/09 13:16:09;;;;;;;0.10;0.10;;;;;;;;;;5039278;28;20206;-62
2021/07/09 13:18:36;;;;;;;0.05;0.05;;;;;;;;;;5039063;28;20223;-62
2021/07/09 13:21:04;;;;;;;0.00;0.00;;;;;;;;;;5021458;28;20209;-63
2021/07/09 13:23:32;;;;;;;0.00;0.00;;;;;;;;;;5035785;28;20208;-62
2021/07/09 13:26:03;;;;;;;0.00;0.00;;;;;;;;;;5023114;28;20232;-62
2021/07/09 13:28:49;;;;;;;0.00;0.00;;;;;;;;;;5021054;28;20203;-61
2021/07/09 13:31:16;;;;;;;0.00;0.00;;;;;;;;;;5024368;28;20199;-63
2021/07/09 13:33:44;;;;;;;0.10;0.10;;;;;;;;;;5034756;28;20205;-62
2021/07/09 13:36:30;;;;;;;0.25;0.25;;;;;;;;;;5034265;28;20210;-62
2021/07/09 13:39:00;;;;;;;0.03;0.03;;;;;;;;;;5035076;28;20193;-62
2021/07/09 13:41:31;;;;;;;0.00;0.00;;;;;;;;;;5036412;28;20220;-62
2021/07/09 13:43:57;;;;;;;0.00;0.00;;;;;;;;;;5030105;28;20249;-62
2021/07/09 13:46:24;;;;;;;0.00;0.00;;;;;;;;;;5022899;28;20211;-62
2021/07/09 13:48:52;;;;;;;0.00;0.00;;;;;;;;;;5040273;28;20203;-62
2021/07/09 13:51:18;;;;;;;0.10;0.10;;;;;;;;;;5039164;28;20201;-63
2021/07/09 13:53:45;;;;;;;0.00;0.00;;;;;;;;;;5023750;28;20213;-62
2021/07/09 13:56:15;;;;;;;0.00;0.00;;;;;;;;;;5030177;28;20228;-62
2021/07/09 13:58:42;;;;;;;0.08;0.08;;;;;;;;;;5039671;28;20267;-62
2021/07/09 14:01:08;;;;;;;0.00;0.00;;;;;;;;;;5039858;28;20221;-62
2021/07/09 14:03:35;;;;;;;0.10;0.10;;;;;;;;;;5022114;28;20542;-62
2021/07/09 14:06:05;;;;;;;0.00;0.00;;;;;;;;;;5020391;28;20208;-62
2021/07/09 14:08:31;;;;;;;0.00;0.00;;;;;;;;;;5026698;28;20504;-63
2021/07/09 14:10:59;;;;;;;0.00;0.00;;;;;;;;;;5027447;28;20278;-63
2021/07/09 14:13:27;;;;;;;0.00;0.00;;;;;;;;;;5020679;28;20217;-62
2021/07/09 14:15:54;;;;;;;0.00;0.00;;;;;;;;;;5039583;28;20306;-62
2021/07/09 14:18:20;;;;;;;0.00;0.00;;;;;;;;;;5033487;28;20226;-62
2021/07/09 14:20:47;;;;;;;0.20;0.20;;;;;;;;;;5033925;28;20204;-62
2021/07/09 14:23:16;;;;;;;0.00;0.00;;;;;;;;;;5024801;28;20267;-62
2021/07/09 14:25:42;;;;;;;0.00;0.00;;;;;;;;;;5028965;28;20235;-62
2021/07/09 14:28:08;;;;;;;0.00;0.00;;;;;;;;;;5019897;28;20220;-62
2021/07/09 14:30:36;;;;;;;0.00;0.00;;;;;;;;;;5035448;28;20264;-62
2021/07/09 14:33:03;;;;;;;0.20;0.20;;;;;;;;;;5025865;28;20218;-62
2021/07/09 14:35:29;;;;;;;0.10;0.10;;;;;;;;;;5033668;28;20204;-62
2021/07/09 14:37:56;;;;;;;0.00;0.00;;;;;;;;;;5019916;28;20224;-62
2021/07/09 14:40:22;;;;;;;0.00;0.00;;;;;;;;;;5027482;28;20213;-62
2021/07/09 14:42:49;;;;;;;0.00;0.00;;;;;;;;;;5034234;28;20211;-62
2021/07/09 14:45:16;;;;;;;0.00;0.00;;;;;;;;;;5026521;28;20241;-62
2021/07/09 14:47:44;;;;;;;0.00;0.00;;;;;;;;;;5026588;28;20234;-62
2021/07/09 14:50:12;;;;;;;0.00;0.00;;;;;;;;;;5039597;28;20212;-62